createdAt,value
2019-05-26T00:02:19.814Z,89.60
2019-05-26T00:07:44.660Z,89.12
2019-05-26T00:13:09.112Z,88.92
2019-05-26T00:18:34.320Z,88.88
2019-05-26T00:23:57.964Z,90.10
2019-05-26T00:29:22.046Z,90.87
2019-05-26T00:34:46.726Z,92.40
2019-05-26T00:40:12.095Z,92.83
2019-05-26T00:45:37.138Z,92.91
2019-05-26T00:51:00.775Z,93.19
2019-05-26T00:56:25.595Z,93.64
2019-05-26T01:01:49.829Z,93.89
2019-05-26T01:07:13.375Z,95.02
2019-05-26T01:12:37.437Z,94.98
2019-05-26T01:18:02.284Z,95.20
2019-05-26T01:23:26.658Z,95.32
2019-05-26T01:28:51.557Z,95.18
2019-05-26T01:34:15.445Z,95.00
2019-05-26T01:39:40.111Z,94.78
2019-05-26T01:45:05.187Z,95.52
2019-05-26T01:50:30.278Z,95.93
2019-05-26T01:55:54.721Z,96.57
2019-05-26T02:01:20.109Z,96.89
2019-05-26T02:06:44.907Z,97.22
2019-05-26T02:12:09.551Z,97.14
2019-05-26T02:17:34.660Z,97.64
2019-05-26T02:22:59.395Z,98.07
2019-05-26T02:28:23.144Z,98.05
2019-05-26T02:33:47.897Z,97.80
2019-05-26T02:39:12.159Z,97.89
2019-05-26T02:44:36.818Z,97.88
2019-05-26T02:50:01.251Z,98.31
2019-05-26T02:55:25.903Z,98.50
2019-05-26T03:00:50.145Z,98.70
2019-05-26T03:06:15.364Z,99.55
2019-05-26T03:11:40.738Z,99.91
2019-05-26T03:17:04.397Z,100.00
2019-05-26T03:22:29.522Z,100.00
2019-05-26T03:27:54.426Z,100.00
2019-05-26T03:33:18.362Z,99.53
2019-05-26T03:38:43.025Z,99.18
2019-05-26T03:44:07.325Z,98.35
2019-05-26T03:49:31.923Z,97.22
2019-05-26T03:54:57.541Z,96.09
2019-05-26T04:00:22.167Z,94.77
2019-05-26T04:05:45.949Z,93.42
2019-05-26T04:11:10.319Z,92.37
2019-05-26T04:16:34.546Z,91.47
2019-05-26T04:21:58.698Z,90.60
2019-05-26T04:27:23.080Z,89.07
2019-05-26T04:32:47.742Z,87.81
2019-05-26T04:38:12.549Z,86.68
2019-05-26T04:43:36.443Z,85.99
2019-05-26T04:49:00.974Z,84.78
2019-05-26T04:54:25.682Z,84.05
2019-05-26T04:59:50.463Z,83.71
2019-05-26T05:05:14.780Z,82.70
2019-05-26T05:10:42.732Z,80.94
2019-05-26T05:16:04.131Z,78.73
2019-05-26T05:21:28.039Z,77.56
2019-05-26T05:26:52.984Z,77.35
2019-05-26T05:32:16.900Z,75.63
2019-05-26T05:37:41.377Z,73.97
2019-05-26T05:43:05.986Z,69.55
2019-05-26T05:48:31.646Z,67.34
2019-05-26T05:53:55.629Z,63.37
2019-05-26T05:59:20.245Z,65.11
2019-05-26T06:04:44.096Z,67.68
2019-05-26T06:10:08.634Z,67.89
2019-05-26T06:15:33.190Z,66.61
2019-05-26T06:20:57.650Z,66.33
2019-05-26T06:26:22.415Z,64.39
2019-05-26T06:31:47.209Z,63.52
2019-05-26T06:37:11.200Z,62.79
2019-05-26T06:42:35.762Z,60.57
2019-05-26T06:47:59.628Z,59.53
2019-05-26T06:53:24.420Z,58.82
2019-05-26T06:58:48.891Z,57.43
2019-05-26T07:04:12.713Z,56.59
2019-05-26T07:09:36.480Z,56.04
2019-05-26T07:15:01.161Z,57.16
2019-05-26T07:20:26.929Z,53.94
2019-05-26T07:25:50.574Z,55.11
2019-05-26T07:31:15.141Z,53.05
2019-05-26T07:36:39.369Z,51.41
2019-05-26T07:42:10.527Z,50.70
2019-05-26T07:47:29.753Z,51.89
2019-05-26T07:52:54.499Z,51.36
2019-05-26T07:58:19.251Z,50.82
2019-05-26T08:03:42.911Z,49.35
2019-05-26T08:09:09.004Z,50.38
2019-05-26T08:14:33.680Z,49.94
2019-05-26T08:19:57.335Z,48.97
2019-05-26T08:25:21.180Z,46.83
2019-05-26T08:30:45.220Z,47.54
2019-05-26T08:36:09.419Z,48.38
2019-05-26T08:41:33.076Z,48.77
2019-05-26T08:46:57.844Z,47.83
2019-05-26T08:52:22.609Z,48.15
2019-05-26T08:57:47.357Z,47.61
2019-05-26T09:03:11.714Z,45.99
2019-05-26T09:08:36.526Z,44.78
2019-05-26T09:14:01.484Z,46.39
2019-05-26T09:19:26.421Z,44.78
2019-05-26T09:24:50.484Z,44.78
2019-05-26T09:30:14.807Z,45.03
2019-05-26T09:35:38.725Z,45.97
2019-05-26T09:41:03.494Z,42.54
2019-05-26T09:46:28.542Z,43.65
2019-05-26T09:51:53.079Z,41.74
2019-05-26T09:57:16.683Z,43.40
2019-05-26T10:02:41.548Z,42.71
2019-05-26T10:08:06.521Z,41.87
2019-05-26T10:13:32.143Z,41.86
2019-05-26T10:18:57.396Z,41.62
2019-05-26T10:24:21.079Z,43.21
2019-05-26T10:29:45.870Z,42.43
2019-05-26T10:35:11.421Z,42.23
2019-05-26T10:40:35.083Z,40.72
2019-05-26T10:46:00.994Z,41.07
2019-05-26T10:51:25.114Z,41.11
2019-05-26T10:56:49.790Z,42.01
2019-05-26T11:02:14.253Z,40.44
2019-05-26T11:07:38.695Z,41.05
2019-05-26T11:13:02.634Z,38.31
2019-05-26T11:18:26.641Z,39.53
2019-05-26T11:23:50.345Z,38.22
2019-05-26T11:29:13.975Z,38.00
2019-05-26T11:34:37.847Z,38.10
2019-05-26T11:40:01.715Z,40.17
2019-05-26T11:45:26.324Z,38.05
2019-05-26T11:50:50.793Z,38.33
2019-05-26T11:56:14.523Z,38.74
2019-05-26T12:01:39.487Z,38.64
2019-05-26T12:07:04.445Z,37.68
2019-05-26T12:12:29.203Z,37.16
2019-05-26T12:17:54.725Z,36.31
2019-05-26T12:23:19.287Z,37.60
2019-05-26T12:28:43.974Z,37.90
2019-05-26T12:34:08.362Z,37.50
2019-05-26T12:39:32.522Z,35.45
2019-05-26T12:44:56.198Z,38.27
2019-05-26T12:50:21.011Z,38.26
2019-05-26T12:55:45.400Z,39.03
2019-05-26T13:01:09.821Z,38.30
2019-05-26T13:06:34.307Z,37.57
2019-05-26T13:11:58.920Z,39.37
2019-05-26T13:17:22.770Z,37.00
2019-05-26T13:22:47.825Z,35.87
2019-05-26T13:28:11.530Z,36.86
2019-05-26T13:33:36.380Z,38.09
2019-05-26T13:39:00.411Z,36.61
2019-05-26T13:44:26.145Z,36.94
2019-05-26T13:49:50.641Z,38.06
2019-05-26T13:55:15.008Z,38.95
2019-05-26T14:00:39.243Z,38.20
2019-05-26T14:06:03.188Z,38.56
2019-05-26T14:11:27.878Z,38.83
2019-05-26T14:16:54.284Z,39.43
2019-05-26T14:22:18.197Z,37.16
2019-05-26T14:27:42.869Z,37.01
2019-05-26T14:33:07.402Z,38.76
2019-05-26T14:38:42.878Z,39.18
2019-05-26T14:43:57.864Z,37.01
2019-05-26T14:49:22.883Z,37.50
2019-05-26T14:54:47.636Z,37.40
2019-05-26T15:00:12.169Z,37.41
2019-05-26T15:05:36.910Z,37.89
2019-05-26T15:11:00.934Z,37.56
2019-05-26T15:16:24.719Z,36.76
2019-05-26T15:21:49.039Z,36.58
2019-05-26T15:27:13.865Z,36.31
2019-05-26T15:32:37.782Z,36.11
2019-05-26T15:38:01.984Z,37.31
2019-05-26T15:43:26.714Z,37.77
2019-05-26T15:48:50.381Z,37.96
2019-05-26T15:54:15.210Z,38.06
2019-05-26T15:59:40.014Z,38.93
2019-05-26T16:05:03.914Z,39.11
2019-05-26T16:10:29.075Z,40.16
2019-05-26T16:15:53.892Z,40.16
2019-05-26T16:21:27.694Z,40.94
2019-05-26T16:26:43.872Z,41.49
2019-05-26T16:32:08.701Z,42.35
2019-05-26T16:37:33.445Z,42.40
2019-05-26T16:42:57.995Z,42.82
2019-05-26T16:48:23.078Z,39.39
2019-05-26T16:53:47.785Z,39.13
2019-05-26T16:59:12.493Z,41.30
2019-05-26T17:04:37.417Z,41.38
2019-05-26T17:10:02.239Z,41.86
2019-05-26T17:15:26.347Z,41.94
2019-05-26T17:20:49.883Z,41.01
2019-05-26T17:26:14.384Z,40.98
2019-05-26T17:31:39.494Z,40.98
2019-05-26T17:37:07.919Z,41.32
2019-05-26T17:42:50.095Z,41.57
2019-05-26T17:48:17.705Z,42.43
2019-05-26T17:53:41.714Z,42.64
2019-05-26T17:59:06.087Z,44.22
2019-05-26T18:04:30.021Z,44.55
2019-05-26T18:09:53.720Z,45.93
2019-05-26T18:15:18.463Z,45.89
2019-05-26T18:20:42.446Z,46.41
2019-05-26T18:26:07.030Z,47.55
2019-05-26T18:31:31.023Z,47.84
2019-05-26T18:36:55.813Z,48.21
2019-05-26T18:42:19.551Z,48.07
2019-05-26T18:47:43.331Z,49.98
2019-05-26T18:53:07.558Z,48.75
2019-05-26T18:58:32.552Z,49.38
2019-05-26T19:03:56.387Z,49.61
2019-05-26T19:09:20.195Z,49.92
2019-05-26T19:14:44.949Z,49.99
2019-05-26T19:20:16.071Z,50.75
2019-05-26T19:25:36.229Z,51.46
2019-05-26T19:31:00.154Z,51.68
2019-05-26T19:36:24.918Z,52.24
2019-05-26T19:41:49.863Z,52.72
2019-05-26T19:47:13.774Z,53.77
2019-05-26T19:52:38.508Z,54.36
2019-05-26T19:58:03.142Z,54.63
2019-05-26T20:03:26.927Z,54.74
2019-05-26T20:08:51.975Z,55.06
2019-05-26T20:14:16.455Z,55.39
2019-05-26T20:19:40.848Z,56.19
2019-05-26T20:25:06.555Z,55.80
2019-05-26T20:30:31.009Z,55.47
2019-05-26T20:35:56.012Z,55.34
2019-05-26T20:41:19.643Z,55.27
2019-05-26T20:46:43.590Z,55.33
2019-05-26T20:52:07.270Z,56.25
2019-05-26T20:57:31.880Z,56.67
2019-05-26T21:02:56.538Z,57.33
2019-05-26T21:08:20.935Z,57.68
2019-05-26T21:13:44.639Z,57.30
2019-05-26T21:19:08.803Z,57.39
2019-05-26T21:24:32.631Z,57.29
2019-05-26T21:29:57.180Z,57.03
2019-05-26T21:35:21.914Z,57.54
2019-05-26T21:40:46.663Z,57.59
2019-05-26T21:46:10.879Z,58.18
2019-05-26T21:51:35.129Z,58.60
2019-05-26T21:56:59.863Z,59.50
2019-05-26T22:02:24.012Z,59.01
2019-05-26T22:07:48.616Z,58.55
2019-05-26T22:13:12.488Z,58.53
2019-05-26T22:18:36.170Z,57.13
2019-05-26T22:24:00.880Z,56.52
2019-05-26T22:29:26.618Z,56.92
2019-05-26T22:34:51.343Z,57.15
2019-05-26T22:40:16.728Z,57.04
2019-05-26T22:45:41.345Z,57.47
2019-05-26T22:51:05.806Z,57.44
2019-05-26T22:56:30.308Z,57.82
2019-05-26T23:01:53.968Z,58.26
2019-05-26T23:07:18.014Z,57.16
2019-05-26T23:12:41.887Z,57.40
2019-05-26T23:18:06.482Z,58.16
2019-05-26T23:23:30.338Z,58.98
2019-05-26T23:28:54.817Z,59.02
2019-05-26T23:34:19.676Z,59.25
2019-05-26T23:39:44.163Z,59.70
2019-05-26T23:45:08.350Z,59.95
2019-05-26T23:50:33.003Z,60.17
2019-05-26T23:55:57.693Z,60.07
